PWSweather.com
Personal Weather Stations
Station Observations
KJ4AJP
Beautiful Downtown Gardner, Martin, TN 38237

Beautiful Downtown GardnerMartin, TN 38237

Lat: 36.358, Lon: -88.8994

Elevation: 384.3

Station Type: TP1080WC

http://weather.mambm.com/

High Low Average
Temperature 70.0°F21.1°C 40.5°F4.7°C 49.6°F9.8°C
Dew Point 66.7°F19.3°C 38.3°F3.5°C 47.9°F8.8°C
Winds 11.4 mph 18.3 kmh Calm Calm 5.0 mph S8.0 kmh S
Wind Gusts 29.8 mph48.0 kmh 3.8 mph6.1 kmh 13.0 mph20.9 kmh
Humidity 99% 89% 94%
Pressure 30.28 in1025.4 mb 29.82 in1009.8 mb -
Precipitation 0.09 in2.3 mm - -
Hour Temp Dew Point Humidity Winds Wind Gusts Pressure Precip Precip Rate Daily Precip Total
12:00 AM 68.5°F20.3°C 66.5°F19.2°C 93% 4.5 mph SSW7.2 kmh SSW 12.1 mph19.5 kmh 29.85 in1010.8 mb 0.00 in0.0 mm 0.00 in0.0 mm 0.00 in0.0 mm
12:15 AM 68.5°F20.3°C 66.5°F19.2°C 93% 5.4 mph SSW8.7 kmh SSW 13.0 mph20.9 kmh 29.84 in1010.5 mb 0.00 in0.0 mm 0.00 in0.0 mm 0.00 in0.0 mm
12:30 AM 69.1°F20.6°C 66.7°F19.3°C 92% 6.9 mph SW11.1 kmh SW 14.5 mph23.3 kmh 29.85 in1010.8 mb 0.00 in0.0 mm 0.00 in0.0 mm 0.00 in0.0 mm
12:45 AM 69.4°F20.8°C 66.4°F19.1°C 90% 8.3 mph SSW13.4 kmh SSW 15.2 mph24.5 kmh 29.84 in1010.5 mb 0.00 in0.0 mm 0.00 in0.0 mm 0.00 in0.0 mm
01:00 AM 69.6°F20.9°C 66.6°F19.2°C 90% 5.4 mph SW8.7 kmh SW 15.9 mph25.6 kmh 29.85 in1010.8 mb 0.00 in0.0 mm 0.00 in0.0 mm 0.00 in0.0 mm
01:15 AM 69.8°F21.0°C 66.4°F19.1°C 89% 4.5 mph SW7.2 kmh SW 13.0 mph20.9 kmh 29.84 in1010.5 mb 0.00 in0.0 mm 0.00 in0.0 mm 0.00 in0.0 mm
01:30 AM 70.0°F21.1°C 66.6°F19.2°C 89% 8.3 mph SW13.4 kmh SW 19.7 mph31.7 kmh 29.84 in1010.5 mb 0.00 in0.0 mm 0.00 in0.0 mm 0.00 in0.0 mm
01:45 AM 69.6°F20.9°C 66.3°F19.1°C 89% 11.4 mph SW18.3 kmh SW 15.9 mph25.6 kmh 29.83 in1010.2 mb 0.00 in0.0 mm 0.00 in0.0 mm 0.00 in0.0 mm
02:00 AM 69.1°F20.6°C 66.1°F18.9°C 90% 2.2 mph SSW3.5 kmh SSW 14.5 mph23.3 kmh 29.83 in1010.2 mb 0.00 in0.0 mm 0.00 in0.0 mm 0.00 in0.0 mm
02:15 AM 68.5°F20.3°C 65.8°F18.8°C 91% 3.1 mph SW5.0 kmh SW 9.8 mph15.8 kmh 29.83 in1010.2 mb 0.00 in0.0 mm 0.00 in0.0 mm 0.00 in0.0 mm
02:30 AM 68.0°F20.0°C 65.6°F18.7°C 92% 3.8 mph SSW6.1 kmh SSW 9.8 mph15.8 kmh 29.83 in1010.2 mb 0.00 in0.0 mm 0.00 in0.0 mm 0.00 in0.0 mm
02:45 AM 67.5°F19.7°C 65.4°F18.6°C 93% 3.1 mph SSW5.0 kmh SSW 9.8 mph15.8 kmh 29.83 in1010.2 mb 0.00 in0.0 mm 0.00 in0.0 mm 0.00 in0.0 mm
03:00 AM 67.8°F19.9°C 66.1°F18.9°C 94% 6.9 mph SW11.1 kmh SW 14.5 mph23.3 kmh 29.82 in1009.8 mb 0.00 in0.0 mm 0.00 in0.0 mm 0.00 in0.0 mm
03:15 AM 68.5°F20.3°C 66.5°F19.2°C 93% 6.0 mph SSW9.7 kmh SSW 12.1 mph19.5 kmh 29.83 in1010.2 mb 0.00 in0.0 mm 0.00 in0.0 mm 0.00 in0.0 mm
03:30 AM 68.0°F20.0°C 65.9°F18.8°C 93% 6.9 mph S11.1 kmh S 17.4 mph28.0 kmh 29.82 in1009.8 mb 0.00 in0.0 mm 0.00 in0.0 mm 0.00 in0.0 mm
03:45 AM 67.8°F19.9°C 65.8°F18.8°C 93% 4.5 mph SW7.2 kmh SW 15.2 mph24.5 kmh 29.82 in1009.8 mb 0.00 in0.0 mm 0.00 in0.0 mm 0.00 in0.0 mm
04:00 AM 68.0°F20.0°C 66.2°F19.0°C 94% 6.9 mph SW11.1 kmh SW 9.8 mph15.8 kmh 29.83 in1010.2 mb 0.00 in0.0 mm 0.00 in0.0 mm 0.00 in0.0 mm
04:15 AM 68.2°F20.1°C 66.1°F18.9°C 93% 8.3 mph SSW13.4 kmh SSW 19.0 mph30.6 kmh 29.83 in1010.2 mb 0.00 in0.0 mm 0.00 in0.0 mm 0.00 in0.0 mm
04:30 AM 68.2°F20.1°C 66.1°F18.9°C 93% 8.3 mph SW13.4 kmh SW 22.1 mph35.6 kmh 29.83 in1010.2 mb 0.00 in0.0 mm 0.00 in0.0 mm 0.00 in0.0 mm
04:45 AM 68.2°F20.1°C 66.1°F18.9°C 93% 9.8 mph WSW15.8 kmh WSW 18.3 mph29.5 kmh 29.84 in1010.5 mb 0.00 in0.0 mm 0.00 in0.0 mm 0.00 in0.0 mm
05:00 AM 68.5°F20.3°C 66.5°F19.2°C 93% 9.2 mph SW14.8 kmh SW 19.0 mph30.6 kmh 29.85 in1010.8 mb 0.00 in0.0 mm 0.00 in0.0 mm 0.00 in0.0 mm
05:15 AM 68.0°F20.0°C 66.2°F19.0°C 94% 6.0 mph WSW9.7 kmh WSW 16.8 mph27.0 kmh 29.88 in1011.9 mb 0.00 in0.0 mm 0.00 in0.0 mm 0.00 in0.0 mm
05:30 AM 63.5°F17.5°C 60.8°F16.0°C 91% 6.0 mph NNW9.7 kmh NNW 17.4 mph28.0 kmh 29.91 in1012.9 mb 0.01 in0.3 mm 0.04 in1.0 mm 0.01 in0.3 mm
05:45 AM 58.3°F14.6°C 56.6°F13.7°C 94% 5.4 mph NNW8.7 kmh NNW 16.8 mph27.0 kmh 29.93 in1013.5 mb 0.02 in0.5 mm 0.04 in1.0 mm 0.02 in0.5 mm
06:00 AM 54.5°F12.5°C 53.1°F11.7°C 95% 9.8 mph N15.8 kmh N 27.3 mph43.9 kmh 29.97 in1014.9 mb 0.05 in1.3 mm 0.04 in1.0 mm 0.05 in1.3 mm
06:15 AM 50.9°F10.5°C 49.5°F9.7°C 95% 6.9 mph NNW11.1 kmh NNW 23.5 mph37.8 kmh 29.98 in1015.2 mb 0.05 in1.3 mm 0.00 in0.0 mm 0.05 in1.3 mm
06:30 AM 49.1°F9.5°C 48.3°F9.1°C 97% 6.0 mph N9.7 kmh N 15.9 mph25.6 kmh 30.02 in1016.6 mb 0.04 in1.0 mm 0.00 in0.0 mm 0.05 in1.3 mm
06:45 AM 47.3°F8.5°C 46.2°F7.9°C 96% 9.8 mph NNW15.8 kmh NNW 23.5 mph37.8 kmh 30.03 in1016.9 mb 0.02 in0.5 mm 0.00 in0.0 mm 0.05 in1.3 mm
07:00 AM 46.6°F8.1°C 45.8°F7.7°C 97% 9.8 mph NNW15.8 kmh NNW 28.9 mph46.5 kmh 30.04 in1017.3 mb 0.00 in0.0 mm 0.00 in0.0 mm 0.05 in1.3 mm
07:15 AM 46.2°F7.9°C 45.4°F7.4°C 97% 6.0 mph N9.7 kmh N 29.8 mph48.0 kmh 30.05 in1017.6 mb 0.00 in0.0 mm 0.00 in0.0 mm 0.05 in1.3 mm
07:30 AM 45.7°F7.6°C 45.1°F7.3°C 98% 6.9 mph N11.1 kmh N 26.6 mph42.8 kmh 30.07 in1018.3 mb 0.00 in0.0 mm 0.00 in0.0 mm 0.05 in1.3 mm
07:45 AM 45.1°F7.3°C 44.9°F7.2°C 99% 8.3 mph N13.4 kmh N 19.7 mph31.7 kmh 30.07 in1018.3 mb 0.00 in0.0 mm 0.00 in0.0 mm 0.05 in1.3 mm
08:00 AM 45.0°F7.2°C 44.7°F7.1°C 99% 6.0 mph N9.7 kmh N 16.8 mph27.0 kmh 30.11 in1019.6 mb 0.00 in0.0 mm 0.00 in0.0 mm 0.05 in1.3 mm
08:15 AM 45.0°F7.2°C 44.7°F7.1°C 99% 11.4 mph N18.3 kmh N 18.3 mph29.5 kmh 30.12 in1020.0 mb 0.00 in0.0 mm 0.00 in0.0 mm 0.05 in1.3 mm
08:30 AM 44.8°F7.1°C 44.5°F6.9°C 99% 5.4 mph N8.7 kmh N 18.3 mph29.5 kmh 30.11 in1019.6 mb 0.00 in0.0 mm 0.00 in0.0 mm 0.05 in1.3 mm
08:45 AM 44.6°F7.0°C 44.3°F6.8°C 99% 6.0 mph N9.7 kmh N 19.0 mph30.6 kmh 30.13 in1020.3 mb 0.00 in0.0 mm 0.00 in0.0 mm 0.05 in1.3 mm
09:00 AM 44.8°F7.1°C 44.5°F6.9°C 99% 6.0 mph N9.7 kmh N 19.0 mph30.6 kmh 30.14 in1020.7 mb 0.00 in0.0 mm 0.00 in0.0 mm 0.05 in1.3 mm
09:15 AM 44.8°F7.1°C 44.5°F6.9°C 99% 10.7 mph N17.2 kmh N 17.4 mph28.0 kmh 30.16 in1021.3 mb 0.00 in0.0 mm 0.00 in0.0 mm 0.05 in1.3 mm
09:30 AM 44.8°F7.1°C 44.5°F6.9°C 99% 2.2 mph N3.5 kmh N 13.6 mph21.9 kmh 30.17 in1021.7 mb 0.01 in0.3 mm 0.04 in1.0 mm 0.06 in1.5 mm
09:45 AM 44.6°F7.0°C 44.3°F6.8°C 99% 0.7 mph N1.1 kmh N 8.3 mph13.4 kmh 30.16 in1021.3 mb 0.01 in0.3 mm 0.00 in0.0 mm 0.06 in1.5 mm
10:00 AM 44.6°F7.0°C 44.3°F6.8°C 99% 3.1 mph N5.0 kmh N 6.0 mph9.7 kmh 30.16 in1021.3 mb 0.02 in0.5 mm 0.01 in0.3 mm 0.07 in1.8 mm
10:15 AM 44.8°F7.1°C 44.5°F6.9°C 99% 2.2 mph N3.5 kmh N 7.6 mph12.2 kmh 30.18 in1022.0 mb 0.04 in1.0 mm 0.08 in2.0 mm 0.08 in2.0 mm
10:30 AM 45.0°F7.2°C 44.7°F7.1°C 99% 3.8 mph N6.1 kmh N 9.8 mph15.8 kmh 30.19 in1022.4 mb 0.02 in0.5 mm 0.00 in0.0 mm 0.08 in2.0 mm
10:45 AM 45.0°F7.2°C 44.7°F7.1°C 99% 6.0 mph N9.7 kmh N 11.4 mph18.3 kmh 30.19 in1022.4 mb 0.04 in1.0 mm 0.08 in2.0 mm 0.09 in2.3 mm
11:00 AM 44.6°F7.0°C 44.3°F6.8°C 99% 3.8 mph NNW6.1 kmh NNW 13.6 mph21.9 kmh 30.20 in1022.7 mb 0.02 in0.5 mm 0.00 in0.0 mm 0.09 in2.3 mm
11:15 AM 44.2°F6.8°C 44.0°F6.7°C 99% 4.5 mph NNW7.2 kmh NNW 8.3 mph13.4 kmh 30.21 in1023.0 mb 0.01 in0.3 mm 0.00 in0.0 mm 0.09 in2.3 mm
11:30 AM 43.5°F6.4°C 43.3°F6.3°C 99% 5.4 mph N8.7 kmh N 14.5 mph23.3 kmh 30.21 in1023.0 mb 0.01 in0.3 mm 0.00 in0.0 mm 0.09 in2.3 mm
11:45 AM 43.0°F6.1°C 42.7°F5.9°C 99% 3.8 mph N6.1 kmh N 17.4 mph28.0 kmh 30.21 in1023.0 mb 0.00 in0.0 mm 0.00 in0.0 mm 0.09 in2.3 mm
12:00 PM 42.8°F6.0°C 42.5°F5.8°C 99% 6.9 mph N11.1 kmh N 16.8 mph27.0 kmh 30.21 in1023.0 mb 0.00 in0.0 mm 0.00 in0.0 mm 0.09 in2.3 mm
12:15 PM 42.8°F6.0°C 42.5°F5.8°C 99% 9.2 mph N14.8 kmh N 16.8 mph27.0 kmh 30.23 in1023.7 mb 0.00 in0.0 mm 0.00 in0.0 mm 0.09 in2.3 mm
12:30 PM 42.8°F6.0°C 42.5°F5.8°C 99% 5.4 mph N8.7 kmh N 18.3 mph29.5 kmh 30.24 in1024.0 mb 0.00 in0.0 mm 0.00 in0.0 mm 0.09 in2.3 mm
12:45 PM 42.6°F5.9°C 42.4°F5.8°C 99% 5.4 mph N8.7 kmh N 17.4 mph28.0 kmh 30.24 in1024.0 mb 0.00 in0.0 mm 0.00 in0.0 mm 0.09 in2.3 mm
01:00 PM 42.4°F5.8°C 42.2°F5.7°C 99% 4.5 mph NNW7.2 kmh NNW 14.5 mph23.3 kmh 30.23 in1023.7 mb 0.00 in0.0 mm 0.00 in0.0 mm 0.09 in2.3 mm
01:15 PM 42.8°F6.0°C 42.5°F5.8°C 99% 6.9 mph N11.1 kmh N 13.0 mph20.9 kmh 30.23 in1023.7 mb 0.00 in0.0 mm 0.00 in0.0 mm 0.09 in2.3 mm
01:30 PM 43.5°F6.4°C 43.3°F6.3°C 99% 6.0 mph N9.7 kmh N 11.4 mph18.3 kmh 30.24 in1024.0 mb 0.00 in0.0 mm 0.00 in0.0 mm 0.09 in2.3 mm
01:45 PM 43.9°F6.6°C 43.4°F6.3°C 98% 6.0 mph N9.7 kmh N 13.6 mph21.9 kmh 30.24 in1024.0 mb 0.00 in0.0 mm 0.00 in0.0 mm 0.09 in2.3 mm
02:00 PM 44.1°F6.7°C 43.0°F6.1°C 96% 8.3 mph N13.4 kmh N 14.5 mph23.3 kmh 30.24 in1024.0 mb 0.00 in0.0 mm 0.00 in0.0 mm 0.09 in2.3 mm
02:15 PM 44.1°F6.7°C 42.7°F5.9°C 95% 6.0 mph N9.7 kmh N 13.6 mph21.9 kmh 30.25 in1024.4 mb 0.00 in0.0 mm 0.00 in0.0 mm 0.09 in2.3 mm
02:30 PM 43.9°F6.6°C 42.5°F5.8°C 95% 6.0 mph N9.7 kmh N 14.5 mph23.3 kmh 30.24 in1024.0 mb 0.00 in0.0 mm 0.00 in0.0 mm 0.09 in2.3 mm
02:45 PM 43.7°F6.5°C 41.8°F5.4°C 93% 9.8 mph N15.8 kmh N 17.4 mph28.0 kmh 30.24 in1024.0 mb 0.00 in0.0 mm 0.00 in0.0 mm 0.09 in2.3 mm
03:00 PM 43.9°F6.6°C 42.0°F5.6°C 93% 9.2 mph N14.8 kmh N 17.4 mph28.0 kmh 30.25 in1024.4 mb 0.00 in0.0 mm 0.00 in0.0 mm 0.09 in2.3 mm
03:15 PM 43.9°F6.6°C 41.7°F5.4°C 92% 5.4 mph NE8.7 kmh NE 17.4 mph28.0 kmh 30.25 in1024.4 mb 0.00 in0.0 mm 0.00 in0.0 mm 0.09 in2.3 mm
03:30 PM 43.5°F6.4°C 41.4°F5.2°C 92% 8.3 mph N13.4 kmh N 17.4 mph28.0 kmh 30.26 in1024.7 mb 0.00 in0.0 mm 0.00 in0.0 mm 0.09 in2.3 mm
03:45 PM 43.3°F6.3°C 40.9°F4.9°C 91% 4.5 mph N7.2 kmh N 18.3 mph29.5 kmh 30.25 in1024.4 mb 0.00 in0.0 mm 0.00 in0.0 mm 0.09 in2.3 mm
04:00 PM 43.3°F6.3°C 41.2°F5.1°C 92% 1.6 mph N2.6 kmh N 11.4 mph18.3 kmh 30.26 in1024.7 mb 0.00 in0.0 mm 0.00 in0.0 mm 0.09 in2.3 mm
04:15 PM 43.2°F6.2°C 40.7°F4.8°C 91% 8.3 mph N13.4 kmh N 15.9 mph25.6 kmh 30.26 in1024.7 mb 0.00 in0.0 mm 0.00 in0.0 mm 0.09 in2.3 mm
04:30 PM 43.0°F6.1°C 40.5°F4.7°C 91% 4.5 mph N7.2 kmh N 13.6 mph21.9 kmh 30.26 in1024.7 mb 0.00 in0.0 mm 0.00 in0.0 mm 0.09 in2.3 mm
04:45 PM 42.8°F6.0°C 40.4°F4.7°C 91% 3.8 mph N6.1 kmh N 12.1 mph19.5 kmh 30.26 in1024.7 mb 0.00 in0.0 mm 0.00 in0.0 mm 0.09 in2.3 mm
05:00 PM 42.6°F5.9°C 40.2°F4.6°C 91% 0.7 mph NNE1.1 kmh NNE 10.7 mph17.2 kmh 30.26 in1024.7 mb 0.00 in0.0 mm 0.00 in0.0 mm 0.09 in2.3 mm
05:15 PM 42.6°F5.9°C 40.2°F4.6°C 91% 4.5 mph N7.2 kmh N 8.3 mph13.4 kmh 30.27 in1025.1 mb 0.00 in0.0 mm 0.00 in0.0 mm 0.09 in2.3 mm
05:30 PM 42.4°F5.8°C 40.0°F4.4°C 91% 3.1 mph NNE5.0 kmh NNE 9.8 mph15.8 kmh 30.27 in1025.1 mb 0.00 in0.0 mm 0.00 in0.0 mm 0.09 in2.3 mm
05:45 PM 42.3°F5.7°C 39.8°F4.3°C 91% 3.8 mph NNE6.1 kmh NNE 12.1 mph19.5 kmh 30.27 in1025.1 mb 0.00 in0.0 mm 0.00 in0.0 mm 0.09 in2.3 mm
06:00 PM 42.1°F5.6°C 39.6°F4.2°C 91% 4.5 mph N7.2 kmh N 10.7 mph17.2 kmh 30.27 in1025.1 mb 0.00 in0.0 mm 0.00 in0.0 mm 0.09 in2.3 mm
06:15 PM 42.1°F5.6°C 39.6°F4.2°C 91% 4.5 mph NNE7.2 kmh NNE 10.7 mph17.2 kmh 30.27 in1025.1 mb 0.00 in0.0 mm 0.00 in0.0 mm 0.09 in2.3 mm
06:30 PM 42.1°F5.6°C 39.6°F4.2°C 91% 2.2 mph NNE3.5 kmh NNE 7.6 mph12.2 kmh 30.27 in1025.1 mb 0.00 in0.0 mm 0.00 in0.0 mm 0.09 in2.3 mm
06:45 PM 41.9°F5.5°C 39.5°F4.2°C 91% 0.7 mph N1.1 kmh N 6.9 mph11.1 kmh 30.27 in1025.1 mb 0.00 in0.0 mm 0.00 in0.0 mm 0.09 in2.3 mm
07:00 PM 41.9°F5.5°C 39.5°F4.2°C 91% 3.8 mph N6.1 kmh N 8.3 mph13.4 kmh 30.28 in1025.4 mb 0.00 in0.0 mm 0.00 in0.0 mm 0.09 in2.3 mm
07:15 PM 41.9°F5.5°C 39.7°F4.3°C 92% 9.2 mph NNE14.8 kmh NNE 11.4 mph18.3 kmh 30.28 in1025.4 mb 0.00 in0.0 mm 0.00 in0.0 mm 0.09 in2.3 mm
07:30 PM 41.9°F5.5°C 39.5°F4.2°C 91% 1.6 mph N2.6 kmh N 7.6 mph12.2 kmh 30.28 in1025.4 mb 0.00 in0.0 mm 0.00 in0.0 mm 0.09 in2.3 mm
07:45 PM 41.9°F5.5°C 39.5°F4.2°C 91% 2.2 mph N3.5 kmh N 6.9 mph11.1 kmh 30.27 in1025.1 mb 0.00 in0.0 mm 0.00 in0.0 mm 0.09 in2.3 mm
08:00 PM 41.9°F5.5°C 39.5°F4.2°C 91% 2.2 mph NE3.5 kmh NE 5.4 mph8.7 kmh 30.28 in1025.4 mb 0.00 in0.0 mm 0.00 in0.0 mm 0.09 in2.3 mm
08:15 PM 41.7°F5.4°C 39.6°F4.2°C 92% 0.7 mph N1.1 kmh N 6.0 mph9.7 kmh 30.27 in1025.1 mb 0.00 in0.0 mm 0.00 in0.0 mm 0.09 in2.3 mm
08:30 PM 41.7°F5.4°C 39.6°F4.2°C 92% 2.2 mph NNE3.5 kmh NNE 8.3 mph13.4 kmh 30.27 in1025.1 mb 0.00 in0.0 mm 0.00 in0.0 mm 0.09 in2.3 mm
08:45 PM 41.7°F5.4°C 39.3°F4.1°C 91% 1.6 mph NE2.6 kmh NE 7.6 mph12.2 kmh 30.27 in1025.1 mb 0.00 in0.0 mm 0.00 in0.0 mm 0.09 in2.3 mm
09:00 PM 41.5°F5.3°C 39.1°F3.9°C 91% 3.1 mph NNE5.0 kmh NNE 6.0 mph9.7 kmh 30.27 in1025.1 mb 0.00 in0.0 mm 0.00 in0.0 mm 0.09 in2.3 mm
09:15 PM 41.4°F5.2°C 38.7°F3.7°C 90% 1.6 mph NNE2.6 kmh NNE 6.9 mph11.1 kmh 30.27 in1025.1 mb 0.00 in0.0 mm 0.00 in0.0 mm 0.09 in2.3 mm
09:30 PM 41.4°F5.2°C 38.9°F3.8°C 91% 0.7 mph NNE1.1 kmh NNE 3.8 mph6.1 kmh 30.27 in1025.1 mb 0.00 in0.0 mm 0.00 in0.0 mm 0.09 in2.3 mm
09:45 PM 41.2°F5.1°C 38.8°F3.8°C 91% 1.6 mph NNE2.6 kmh NNE 4.5 mph7.2 kmh 30.25 in1024.4 mb 0.00 in0.0 mm 0.00 in0.0 mm 0.09 in2.3 mm
10:00 PM 41.0°F5.0°C 38.6°F3.7°C 91% 2.2 mph NE3.5 kmh NE 7.6 mph12.2 kmh 30.25 in1024.4 mb 0.00 in0.0 mm 0.00 in0.0 mm 0.09 in2.3 mm
10:15 PM 41.0°F5.0°C 38.6°F3.7°C 91% 2.2 mph NNE3.5 kmh NNE 8.3 mph13.4 kmh 30.24 in1024.0 mb 0.00 in0.0 mm 0.00 in0.0 mm 0.09 in2.3 mm
10:30 PM 41.0°F5.0°C 38.6°F3.7°C 91% 3.1 mph NE5.0 kmh NE 9.2 mph14.8 kmh 30.23 in1023.7 mb 0.00 in0.0 mm 0.00 in0.0 mm 0.09 in2.3 mm
10:45 PM 40.8°F4.9°C 38.4°F3.6°C 91% 2.2 mph NNE3.5 kmh NNE 8.3 mph13.4 kmh 30.22 in1023.4 mb 0.00 in0.0 mm 0.00 in0.0 mm 0.09 in2.3 mm
11:00 PM 40.6°F4.8°C 38.5°F3.6°C 92% 1.6 mph NNE2.6 kmh NNE 6.0 mph9.7 kmh 30.23 in1023.7 mb 0.00 in0.0 mm 0.00 in0.0 mm 0.09 in2.3 mm
11:15 PM 40.6°F4.8°C 38.5°F3.6°C 92% Calm Calm 4.5 mph7.2 kmh 30.22 in1023.4 mb 0.00 in0.0 mm 0.00 in0.0 mm 0.09 in2.3 mm
11:30 PM 40.5°F4.7°C 38.3°F3.5°C 92% 1.6 mph NE2.6 kmh NE 5.4 mph8.7 kmh 30.22 in1023.4 mb 0.00 in0.0 mm 0.00 in0.0 mm 0.09 in2.3 mm
11:45 PM 40.5°F4.7°C 38.3°F3.5°C 92% 1.6 mph NE2.6 kmh NE 5.4 mph8.7 kmh 30.23 in1023.7 mb 0.00 in0.0 mm 0.00 in0.0 mm 0.09 in2.3 mm